createdAt,value
2022-12-03T00:01:03.883Z,39.10
2022-12-03T00:03:35.923Z,50.03
2022-12-03T00:06:04.543Z,45.63
2022-12-03T00:08:36.252Z,45.47
2022-12-03T00:11:04.688Z,46.13
2022-12-03T00:13:33.131Z,46.77
2022-12-03T00:16:01.599Z,41.47
2022-12-03T00:18:30.076Z,49.37
2022-12-03T00:20:58.509Z,47.07
2022-12-03T00:23:27.001Z,44.13
2022-12-03T00:25:56.799Z,46.53
2022-12-03T00:28:25.243Z,47.33
2022-12-03T00:30:54.509Z,52.83
2022-12-03T00:33:23.373Z,53.20
2022-12-03T00:35:51.784Z,48.80
2022-12-03T00:38:20.333Z,57.23
2022-12-03T00:40:48.776Z,57.63
2022-12-03T00:43:18.569Z,56.00
2022-12-03T00:45:46.974Z,53.63
2022-12-03T00:48:15.416Z,67.53
2022-12-03T00:50:43.874Z,64.03
2022-12-03T00:53:12.277Z,72.03
2022-12-03T00:55:40.702Z,71.70
2022-12-03T00:58:09.567Z,71.43
2022-12-03T01:00:39.535Z,69.90
2022-12-03T01:03:07.962Z,79.90
2022-12-03T01:05:36.432Z,68.33
2022-12-03T01:08:04.940Z,67.63
2022-12-03T01:10:33.418Z,70.13
2022-12-03T01:13:01.862Z,74.53
2022-12-03T01:15:30.245Z,75.80
2022-12-03T01:18:00.322Z,79.37
2022-12-03T01:20:28.849Z,79.00
2022-12-03T01:22:57.897Z,81.33
2022-12-03T01:25:28.745Z,71.07
2022-12-03T01:27:57.173Z,75.17
2022-12-03T01:30:25.616Z,79.03
2022-12-03T01:32:53.091Z,66.93
2022-12-03T01:35:22.880Z,61.93
2022-12-03T01:37:51.328Z,62.33
2022-12-03T01:40:21.561Z,65.00
2022-12-03T01:42:49.973Z,66.90
2022-12-03T01:45:22.748Z,72.73
2022-12-03T01:47:51.365Z,74.60
2022-12-03T01:50:21.227Z,59.43
2022-12-03T01:52:51.141Z,61.33
2022-12-03T01:55:21.592Z,63.57
2022-12-03T01:57:51.505Z,70.90
2022-12-03T02:00:21.494Z,66.23
2022-12-03T02:02:50.632Z,70.30
2022-12-03T02:05:19.899Z,62.93
2022-12-03T02:07:48.437Z,69.77
2022-12-03T02:10:20.069Z,64.83
2022-12-03T02:12:50.211Z,64.27
2022-12-03T02:15:18.656Z,72.43
2022-12-03T02:17:47.353Z,76.40
2022-12-03T02:20:15.990Z,72.47
2022-12-03T02:22:48.357Z,76.60
2022-12-03T02:25:19.912Z,75.43
2022-12-03T02:31:17.171Z,67.57
2022-12-03T02:33:45.765Z,69.50
2022-12-03T02:36:14.456Z,72.53
2022-12-03T02:38:43.632Z,73.93
2022-12-03T02:41:36.146Z,65.80
2022-12-03T02:44:04.413Z,67.13
2022-12-03T02:46:32.995Z,74.57
2022-12-03T02:49:01.901Z,66.57
2022-12-03T02:51:30.416Z,75.97
2022-12-03T02:53:58.995Z,66.87
2022-12-03T02:56:31.559Z,63.30
2022-12-03T02:59:01.275Z,59.67
2022-12-03T03:01:29.829Z,68.53
2022-12-03T03:03:58.613Z,68.10
2022-12-03T03:06:27.170Z,69.67
2022-12-03T03:08:55.722Z,65.43
2022-12-03T03:11:24.234Z,71.47
2022-12-03T03:13:54.050Z,70.13
2022-12-03T03:16:22.594Z,61.60
2022-12-03T03:18:51.137Z,60.90
2022-12-03T03:21:19.586Z,55.23
2022-12-03T03:23:48.050Z,65.50
2022-12-03T03:26:16.712Z,64.33
2022-12-03T03:28:46.086Z,70.63
2022-12-03T03:31:17.910Z,77.13
2022-12-03T03:33:47.478Z,78.17
2022-12-03T03:36:17.070Z,71.00
2022-12-03T03:38:45.572Z,65.63
2022-12-03T03:41:14.524Z,64.40
2022-12-03T03:43:44.090Z,66.03
2022-12-03T03:46:12.815Z,62.53
2022-12-03T03:48:43.285Z,65.50
2022-12-03T03:51:12.303Z,67.67
2022-12-03T03:53:42.072Z,69.20
2022-12-03T03:56:10.665Z,76.93
2022-12-03T03:58:39.436Z,75.93
2022-12-03T04:01:08.393Z,74.80
2022-12-03T04:03:37.189Z,76.70
2022-12-03T04:06:07.812Z,77.53
2022-12-03T04:08:36.462Z,74.23
2022-12-03T04:11:22.956Z,81.33
2022-12-03T04:13:54.091Z,83.07
2022-12-03T04:16:22.612Z,98.83
2022-12-03T04:18:51.093Z,84.37
2022-12-03T04:21:39.260Z,89.23
2022-12-03T04:24:08.801Z,79.60
2022-12-03T04:26:55.186Z,89.03
2022-12-03T04:29:25.742Z,90.20
2022-12-03T04:32:11.655Z,76.93
2022-12-03T04:34:57.611Z,80.63
2022-12-03T04:37:27.528Z,91.07
2022-12-03T04:39:56.000Z,88.97
2022-12-03T04:42:24.474Z,97.97
2022-12-03T04:44:53.299Z,93.27
2022-12-03T04:47:22.921Z,101.07
2022-12-03T04:49:52.039Z,83.80
2022-12-03T04:52:24.601Z,83.70
2022-12-03T04:54:54.616Z,76.10
2022-12-03T04:57:23.250Z,86.57
2022-12-03T04:59:51.655Z,77.40
2022-12-03T05:02:20.191Z,81.30
2022-12-03T05:04:48.618Z,96.17
2022-12-03T05:07:17.056Z,91.17
2022-12-03T05:09:45.474Z,85.27
2022-12-03T05:12:15.249Z,79.00
2022-12-03T05:14:43.708Z,77.97
2022-12-03T05:17:12.933Z,83.20
2022-12-03T05:19:58.823Z,76.07
2022-12-03T05:22:27.282Z,75.30
2022-12-03T05:24:57.316Z,72.50
2022-12-03T05:27:27.148Z,73.47
2022-12-03T05:29:55.617Z,86.47
2022-12-03T05:32:24.048Z,77.63
2022-12-03T05:34:52.938Z,88.47
2022-12-03T05:37:21.585Z,74.60
2022-12-03T05:39:50.038Z,73.57
2022-12-03T05:42:36.192Z,66.07
2022-12-03T05:45:06.463Z,56.47
2022-12-03T05:47:34.905Z,62.20
2022-12-03T05:50:03.354Z,69.77
2022-12-03T05:52:31.872Z,71.00
2022-12-03T05:55:00.403Z,64.97
2022-12-03T05:57:30.458Z,62.40
2022-12-03T05:59:58.883Z,59.83
2022-12-03T06:02:28.824Z,55.00
2022-12-03T06:04:57.352Z,56.47
2022-12-03T06:07:25.843Z,57.37
2022-12-03T06:09:54.485Z,61.17
2022-12-03T06:12:22.930Z,59.80
2022-12-03T06:14:52.726Z,47.73
2022-12-03T06:17:21.531Z,55.17
2022-12-03T06:19:51.512Z,54.77
2022-12-03T06:22:20.279Z,51.53
2022-12-03T06:24:48.723Z,51.33
2022-12-03T06:27:17.120Z,45.43
2022-12-03T06:29:45.633Z,50.37
2022-12-03T06:32:16.391Z,58.33
2022-12-03T06:34:48.015Z,56.13
2022-12-03T06:37:17.923Z,57.23
2022-12-03T06:39:46.351Z,48.60
2022-12-03T06:42:15.957Z,50.13
2022-12-03T06:44:44.389Z,50.93
2022-12-03T06:47:12.575Z,50.63
2022-12-03T06:49:40.714Z,55.90
2022-12-03T06:52:09.132Z,52.33
2022-12-03T06:54:38.973Z,50.53
2022-12-03T06:57:07.385Z,51.50
2022-12-03T06:59:37.597Z,49.83
2022-12-03T07:02:06.098Z,63.03
2022-12-03T07:04:34.804Z,57.97
2022-12-03T07:07:03.242Z,63.13
2022-12-03T07:09:31.951Z,64.17
2022-12-03T07:12:01.767Z,56.80
2022-12-03T07:14:30.201Z,58.27
2022-12-03T07:16:58.765Z,57.30
2022-12-03T07:19:32.348Z,62.27
2022-12-03T07:22:01.339Z,66.33
2022-12-03T07:24:29.797Z,54.30
2022-12-03T07:26:58.953Z,64.07
2022-12-03T07:29:28.915Z,61.60
2022-12-03T07:31:57.336Z,58.37
2022-12-03T07:34:26.043Z,68.27
2022-12-03T07:36:54.502Z,73.53
2022-12-03T07:39:23.099Z,59.30
2022-12-03T07:41:51.513Z,62.30
2022-12-03T07:44:21.080Z,62.50
2022-12-03T07:46:51.865Z,74.93
2022-12-03T07:49:21.102Z,66.77
2022-12-03T07:51:54.242Z,62.17
2022-12-03T07:54:22.805Z,58.00
2022-12-03T07:56:52.688Z,54.97
2022-12-03T07:59:23.702Z,54.17
2022-12-03T08:01:53.813Z,49.40
2022-12-03T08:04:22.315Z,53.13
2022-12-03T08:06:51.349Z,47.73
2022-12-03T08:09:19.880Z,49.40
2022-12-03T08:11:49.432Z,52.60
2022-12-03T08:14:18.747Z,55.87
2022-12-03T08:16:48.491Z,54.03
2022-12-03T08:19:19.172Z,52.23
2022-12-03T08:21:48.993Z,55.73
2022-12-03T08:24:18.614Z,63.33
2022-12-03T08:26:47.777Z,60.10
2022-12-03T08:29:17.082Z,61.30
2022-12-03T08:31:49.288Z,60.03
2022-12-03T08:34:20.253Z,59.80
2022-12-03T08:36:49.658Z,58.00
2022-12-03T08:39:29.821Z,71.90
2022-12-03T08:42:17.756Z,63.77
2022-12-03T08:44:46.187Z,71.73
2022-12-03T08:47:17.544Z,62.80
2022-12-03T08:49:53.209Z,67.97
2022-12-03T08:52:24.598Z,68.33
2022-12-03T08:54:53.942Z,73.33
2022-12-03T08:57:28.503Z,65.73
2022-12-03T09:00:00.276Z,64.43
2022-12-03T09:02:30.668Z,50.87
2022-12-03T09:05:01.125Z,58.10
2022-12-03T09:07:29.598Z,49.60
2022-12-03T09:09:58.124Z,48.63
2022-12-03T09:12:26.550Z,47.37
2022-12-03T09:14:55.153Z,41.83
2022-12-03T09:17:24.749Z,43.90
2022-12-03T09:19:53.277Z,37.50
2022-12-03T09:22:23.077Z,35.67
2022-12-03T09:24:51.761Z,34.97
2022-12-03T09:27:22.519Z,38.70
2022-12-03T09:29:51.020Z,41.40
2022-12-03T09:32:19.932Z,40.73
2022-12-03T09:34:49.158Z,45.70
2022-12-03T09:37:17.542Z,39.40
2022-12-03T09:39:47.364Z,42.03
2022-12-03T09:42:16.590Z,37.17
2022-12-03T09:44:46.476Z,42.83
2022-12-03T09:47:15.106Z,43.33
2022-12-03T09:49:43.712Z,40.00
2022-12-03T09:52:13.971Z,45.33
2022-12-03T09:54:47.100Z,42.50
2022-12-03T09:57:18.790Z,43.33
2022-12-03T09:59:47.400Z,40.87
2022-12-03T10:02:21.583Z,34.90
2022-12-03T10:04:50.307Z,45.37
2022-12-03T10:07:18.786Z,36.60
2022-12-03T10:09:47.423Z,49.87
2022-12-03T10:12:21.838Z,54.23
2022-12-03T10:14:50.895Z,52.37
2022-12-03T10:17:22.101Z,53.70
2022-12-03T10:19:50.693Z,51.60
2022-12-03T10:22:19.148Z,53.20
2022-12-03T10:24:47.617Z,61.07
2022-12-03T10:27:26.255Z,52.90
2022-12-03T10:29:58.380Z,54.67
2022-12-03T10:32:27.977Z,57.63
2022-12-03T10:35:08.785Z,59.47
2022-12-03T10:37:37.261Z,65.80
2022-12-03T10:40:08.471Z,73.03
2022-12-03T10:42:39.371Z,63.60
2022-12-03T10:45:14.543Z,72.33
2022-12-03T10:47:43.504Z,77.70
2022-12-03T10:50:17.865Z,72.43
2022-12-03T10:52:46.611Z,72.63
2022-12-03T10:55:15.668Z,59.10
2022-12-03T10:57:48.160Z,66.80
2022-12-03T11:00:17.949Z,71.27
2022-12-03T11:02:50.404Z,73.30
2022-12-03T11:05:26.686Z,72.27
2022-12-03T11:07:55.315Z,69.60
2022-12-03T11:10:24.027Z,72.90
2022-12-03T11:13:45.619Z,55.97
2022-12-03T11:16:16.502Z,61.47
2022-12-03T11:19:01.913Z,58.73
2022-12-03T11:21:30.632Z,58.80
2022-12-03T11:24:18.833Z,66.63
2022-12-03T11:27:06.826Z,63.57
2022-12-03T11:29:48.659Z,61.47
2022-12-03T11:32:32.154Z,70.23
2022-12-03T11:35:04.385Z,62.13
2022-12-03T11:37:32.864Z,66.40
2022-12-03T11:40:05.548Z,72.77
2022-12-03T11:42:39.720Z,69.10
2022-12-03T11:45:18.616Z,64.43
2022-12-03T11:47:48.947Z,69.73
2022-12-03T11:50:23.514Z,70.10
2022-12-03T11:52:55.084Z,59.63
2022-12-03T11:55:28.285Z,61.07
2022-12-03T11:57:59.360Z,53.30
2022-12-03T12:00:27.990Z,65.73
2022-12-03T12:02:58.334Z,60.83
2022-12-03T12:05:29.868Z,72.90
2022-12-03T12:07:58.624Z,75.67
2022-12-03T12:10:40.912Z,67.87
2022-12-03T12:13:26.543Z,64.47
2022-12-03T12:15:55.053Z,68.70
2022-12-03T12:18:36.800Z,66.27
2022-12-03T12:21:24.121Z,55.03
2022-12-03T12:23:53.961Z,57.43
2022-12-03T12:26:22.636Z,54.50
2022-12-03T12:28:51.099Z,56.43
2022-12-03T12:31:19.670Z,62.50
2022-12-03T12:33:47.913Z,65.67
2022-12-03T12:36:19.567Z,67.43
2022-12-03T12:38:48.155Z,71.23
2022-12-03T12:41:17.970Z,68.27
2022-12-03T12:43:46.760Z,60.20
2022-12-03T12:49:07.342Z,64.40
2022-12-03T12:51:36.049Z,59.63
2022-12-03T12:54:04.543Z,49.53
2022-12-03T12:56:34.501Z,53.43
2022-12-03T12:59:11.250Z,63.37
2022-12-03T13:01:39.961Z,57.90
2022-12-03T13:04:12.224Z,61.53
2022-12-03T13:06:40.654Z,58.70
2022-12-03T13:09:14.471Z,61.67
2022-12-03T13:11:45.791Z,58.00
2022-12-03T13:14:16.934Z,62.77
2022-12-03T13:16:45.541Z,60.17
2022-12-03T13:19:15.667Z,63.03
2022-12-03T13:21:45.795Z,59.23
2022-12-03T13:24:27.785Z,57.00
2022-12-03T13:26:57.761Z,59.80
2022-12-03T13:29:27.717Z,62.30
2022-12-03T13:31:57.204Z,65.53
2022-12-03T13:34:26.970Z,56.70
2022-12-03T13:36:58.477Z,67.93
2022-12-03T13:39:29.473Z,63.63
2022-12-03T13:42:17.398Z,62.90
2022-12-03T13:44:47.831Z,66.83
2022-12-03T13:47:17.601Z,69.93
2022-12-03T13:49:48.915Z,67.10
2022-12-03T13:52:18.255Z,68.37
2022-12-03T13:54:46.705Z,68.20
2022-12-03T13:57:16.540Z,60.07
2022-12-03T13:59:44.991Z,69.17
2022-12-03T14:02:13.750Z,63.00
2022-12-03T14:04:42.230Z,59.93
2022-12-03T14:07:10.705Z,68.07
2022-12-03T14:09:39.244Z,63.83
2022-12-03T14:12:25.500Z,68.77
2022-12-03T14:14:55.634Z,57.27
2022-12-03T14:17:24.135Z,62.80
2022-12-03T14:19:53.026Z,61.00
2022-12-03T14:22:23.545Z,61.80
2022-12-03T14:24:52.056Z,65.83
2022-12-03T14:27:20.659Z,60.67
2022-12-03T14:29:49.480Z,64.63
2022-12-03T14:32:19.293Z,54.83
2022-12-03T14:34:47.911Z,61.33
2022-12-03T14:37:16.496Z,66.03
2022-12-03T14:39:44.903Z,61.97
2022-12-03T14:42:16.874Z,68.13
2022-12-03T14:44:46.192Z,63.17
2022-12-03T14:47:15.057Z,79.27
2022-12-03T14:50:05.586Z,70.33
2022-12-03T14:52:36.316Z,73.37
2022-12-03T14:55:04.741Z,76.50
2022-12-03T14:57:33.207Z,72.00
2022-12-03T15:00:01.733Z,84.30
2022-12-03T15:02:30.367Z,82.80
2022-12-03T15:04:58.928Z,71.53
2022-12-03T15:07:28.886Z,69.77
2022-12-03T15:09:57.642Z,82.60
2022-12-03T15:12:27.570Z,82.07
2022-12-03T15:14:56.342Z,73.43
2022-12-03T15:17:31.368Z,84.70
2022-12-03T15:20:00.584Z,76.90
2022-12-03T15:22:30.401Z,72.57
2022-12-03T15:24:58.882Z,80.70
2022-12-03T15:27:27.296Z,76.80
2022-12-03T15:29:55.967Z,79.73
2022-12-03T15:32:24.827Z,80.60
2022-12-03T15:34:53.321Z,79.83
2022-12-03T15:37:21.733Z,75.57
2022-12-03T15:39:51.645Z,74.97
2022-12-03T15:42:20.084Z,82.50
2022-12-03T15:44:48.584Z,76.63
2022-12-03T15:47:17.093Z,66.80
2022-12-03T15:49:45.548Z,82.40
2022-12-03T15:52:13.987Z,74.50
2022-12-03T15:54:42.466Z,79.50
2022-12-03T15:57:12.335Z,92.70
2022-12-03T15:59:40.899Z,104.30
2022-12-03T16:02:09.390Z,75.30
2022-12-03T16:04:37.991Z,80.03
2022-12-03T16:07:07.158Z,95.73
2022-12-03T16:09:36.454Z,102.67
2022-12-03T16:12:05.001Z,94.30
2022-12-03T16:14:35.431Z,111.50
2022-12-03T16:17:03.842Z,85.00
2022-12-03T16:19:32.281Z,84.40
2022-12-03T16:22:02.677Z,85.43
2022-12-03T16:24:31.399Z,76.97
2022-12-03T16:26:59.876Z,72.93
2022-12-03T16:29:28.417Z,83.07
2022-12-03T16:31:58.356Z,80.70
2022-12-03T16:34:27.139Z,76.33
2022-12-03T16:36:55.550Z,78.00
2022-12-03T16:39:25.648Z,72.63
2022-12-03T16:41:54.072Z,84.20
2022-12-03T16:44:32.588Z,91.67
2022-12-03T16:47:02.821Z,77.43
2022-12-03T16:49:31.275Z,86.40
2022-12-03T16:51:59.722Z,89.53
2022-12-03T16:54:28.364Z,72.50
2022-12-03T16:56:57.215Z,83.87
2022-12-03T16:59:25.623Z,81.93
2022-12-03T17:01:54.460Z,75.63
2022-12-03T17:04:24.397Z,67.67
2022-12-03T17:06:52.908Z,68.43
2022-12-03T17:09:23.784Z,70.93
2022-12-03T17:11:52.267Z,68.20
2022-12-03T17:14:21.411Z,66.53
2022-12-03T17:16:50.290Z,60.10
2022-12-03T17:19:18.753Z,72.47
2022-12-03T17:21:48.551Z,75.23
2022-12-03T17:24:17.379Z,69.10
2022-12-03T17:26:46.468Z,71.80
2022-12-03T17:29:15.257Z,84.53
2022-12-03T17:31:43.900Z,77.57
2022-12-03T17:34:12.402Z,67.77
2022-12-03T17:36:40.801Z,61.53
2022-12-03T17:39:10.782Z,72.97
2022-12-03T17:41:39.217Z,76.17
2022-12-03T17:44:11.311Z,90.47
2022-12-03T17:46:41.567Z,88.43
2022-12-03T17:49:10.114Z,99.47
2022-12-03T17:51:39.495Z,94.13
2022-12-03T17:54:07.913Z,108.17
2022-12-03T17:56:39.279Z,109.87
2022-12-03T17:59:07.839Z,116.43
2022-12-03T18:01:36.409Z,105.83
2022-12-03T18:04:07.335Z,87.30
2022-12-03T18:06:35.821Z,109.60
2022-12-03T18:09:04.304Z,104.63
2022-12-03T18:11:33.130Z,84.27
2022-12-03T18:14:02.917Z,88.30
2022-12-03T18:16:31.428Z,92.47
2022-12-03T18:19:06.011Z,75.77
2022-12-03T18:21:35.363Z,75.90
2022-12-03T18:24:03.838Z,86.60
2022-12-03T18:26:32.256Z,73.57
2022-12-03T18:29:00.808Z,82.97
2022-12-03T18:31:30.670Z,76.57
2022-12-03T18:33:59.132Z,70.47
2022-12-03T18:36:29.826Z,92.63
2022-12-03T18:39:01.057Z,84.33
2022-12-03T18:41:29.570Z,91.27
2022-12-03T18:43:58.060Z,101.93
2022-12-03T18:46:51.839Z,114.43
2022-12-03T18:49:16.452Z,100.83
2022-12-03T18:51:45.074Z,116.60
2022-12-03T18:54:14.231Z,99.13
2022-12-03T18:56:42.956Z,117.13
2022-12-03T18:59:12.306Z,108.93
2022-12-03T19:01:40.851Z,94.07
2022-12-03T19:04:10.875Z,109.07
2022-12-03T19:06:40.717Z,92.57
2022-12-03T19:09:09.295Z,102.10
2022-12-03T19:11:37.529Z,89.23
2022-12-03T19:14:05.724Z,104.73
2022-12-03T19:16:34.338Z,84.07
2022-12-03T19:19:02.925Z,94.10
2022-12-03T19:21:33.905Z,74.23
2022-12-03T19:24:23.744Z,81.90
2022-12-03T19:26:55.267Z,86.63
2022-12-03T19:29:24.411Z,98.97
2022-12-03T19:31:55.914Z,87.07
2022-12-03T19:34:24.855Z,95.03
2022-12-03T19:36:53.390Z,99.40
2022-12-03T19:39:23.918Z,86.23
2022-12-03T19:41:52.697Z,88.70
2022-12-03T19:44:23.489Z,74.30
2022-12-03T19:46:52.860Z,111.57
2022-12-03T19:49:23.379Z,70.90
2022-12-03T19:51:51.884Z,60.43
2022-12-03T19:54:21.462Z,68.90
2022-12-03T19:56:51.288Z,88.87
2022-12-03T19:59:19.744Z,77.80
2022-12-03T20:01:48.338Z,71.17
2022-12-03T20:04:16.964Z,80.43
2022-12-03T20:06:45.491Z,80.63
2022-12-03T20:09:17.240Z,99.73
2022-12-03T20:11:46.237Z,111.10
2022-12-03T20:14:16.670Z,62.67
2022-12-03T20:16:45.614Z,61.60
2022-12-03T20:19:14.789Z,58.67
2022-12-03T20:21:43.763Z,64.93
2022-12-03T20:24:16.750Z,66.30
2022-12-03T20:26:45.236Z,68.47
2022-12-03T20:29:14.088Z,65.23
2022-12-03T20:31:43.906Z,61.27
2022-12-03T20:34:12.845Z,65.67
2022-12-03T20:36:42.747Z,65.00
2022-12-03T20:39:12.015Z,65.30
2022-12-03T20:41:40.659Z,58.37
2022-12-03T20:44:09.716Z,61.00
2022-12-03T20:46:38.417Z,58.57
2022-12-03T20:49:08.225Z,63.57
2022-12-03T20:51:36.717Z,57.20
2022-12-03T20:54:05.429Z,66.30
2022-12-03T20:56:35.829Z,59.13
2022-12-03T20:59:06.477Z,69.20
2022-12-03T21:01:36.048Z,60.97
2022-12-03T21:04:05.165Z,68.43
2022-12-03T21:06:37.675Z,68.83
2022-12-03T21:09:06.681Z,67.17
2022-12-03T21:11:35.903Z,58.30
2022-12-03T21:14:05.174Z,66.30
2022-12-03T21:19:24.616Z,58.40
2022-12-03T21:21:54.525Z,59.60
2022-12-03T21:24:22.985Z,55.63
2022-12-03T21:26:51.449Z,73.37
2022-12-03T21:29:19.964Z,58.20
2022-12-03T21:31:48.415Z,59.60
2022-12-03T21:34:16.875Z,63.60
2022-12-03T21:36:45.350Z,81.67
2022-12-03T21:39:15.293Z,72.63
2022-12-03T21:42:33.816Z,69.90
2022-12-03T21:44:35.069Z,63.90
2022-12-03T21:47:10.720Z,74.80
2022-12-03T21:49:42.339Z,66.17
2022-12-03T21:52:11.197Z,64.47
2022-12-03T21:54:41.493Z,70.70
2022-12-03T21:57:09.998Z,72.77
2022-12-03T21:59:38.491Z,77.73
2022-12-03T22:02:07.097Z,92.57
2022-12-03T22:04:35.814Z,95.17
2022-12-03T22:07:04.244Z,88.07
2022-12-03T22:09:33.025Z,102.53
2022-12-03T22:12:02.815Z,96.23
2022-12-03T22:14:31.647Z,78.27
2022-12-03T22:17:00.254Z,103.77
2022-12-03T22:19:28.899Z,76.27
2022-12-03T22:21:57.389Z,60.43
2022-12-03T22:24:25.867Z,82.27
2022-12-03T22:26:55.014Z,80.70
2022-12-03T22:29:24.861Z,73.13
2022-12-03T22:31:53.453Z,72.43
2022-12-03T22:34:21.917Z,69.83
2022-12-03T22:36:52.526Z,70.63
2022-12-03T22:39:21.017Z,61.87
2022-12-03T22:41:49.537Z,73.20
2022-12-03T22:44:17.995Z,63.13
2022-12-03T22:46:48.220Z,73.83
2022-12-03T22:49:16.838Z,57.50
2022-12-03T22:51:46.484Z,70.07
2022-12-03T22:54:18.291Z,62.67
2022-12-03T22:56:53.206Z,70.03
2022-12-03T22:59:21.602Z,71.90
2022-12-03T23:01:53.282Z,60.53
2022-12-03T23:04:24.297Z,72.47
2022-12-03T23:06:52.749Z,58.03
2022-12-03T23:09:21.301Z,79.33
2022-12-03T23:11:49.740Z,64.20
2022-12-03T23:14:18.258Z,79.33
2022-12-03T23:16:46.657Z,74.27
2022-12-03T23:19:16.508Z,79.33
2022-12-03T23:21:44.897Z,68.23
2022-12-03T23:24:13.324Z,58.70
2022-12-03T23:26:41.757Z,76.83
2022-12-03T23:29:10.253Z,68.10
2022-12-03T23:31:38.683Z,86.67
2022-12-03T23:34:07.286Z,78.60
2022-12-03T23:36:37.143Z,77.70
2022-12-03T23:39:05.577Z,86.33
2022-12-03T23:41:33.980Z,78.83
2022-12-03T23:44:02.429Z,89.70
2022-12-03T23:46:30.920Z,74.10
2022-12-03T23:49:00.317Z,72.77
2022-12-03T23:51:31.459Z,75.10
2022-12-03T23:54:01.263Z,77.93
2022-12-03T23:56:30.652Z,72.20
2022-12-03T23:58:59.706Z,71.90
